SWA4104 KSFO-KSAN
Flight info
| Callsign | SWA4104 |
|---|---|
| Flight time | 1h 10m |
| Altitude | 33000 |
| Route | WESLA5 YYUNG LAX COMIX2 |
| Aircraft | B737/M-SDE2E3FGHIRWXY/LB1 |
Departure
| Time | 2026-04-26 18:50 |
|---|---|
| Airport | San Francisco International Airport (KSFO) |
Arrival
| Time | 2026-04-26 20:00 |
|---|---|
| Airport | San Diego International Airport (KSAN) |
| Time | Latitude | Longitude | Altitude | Speed | Heading |
|---|---|---|---|---|---|
| 2026-04-26 18:12 | 37.61657 | -122.38127 | 23 ft | 0 kts | 1° |
| 2026-04-26 18:39 | 37.61638 | -122.38129 | 22 ft | 4 kts | 17° |
| 2026-04-26 18:39 | 37.61617 | -122.38145 | 22 ft | 4 kts | 65° |
| 2026-04-26 18:39 | 37.61615 | -122.38172 | 22 ft | 2 kts | 116° |
| 2026-04-26 18:39 | 37.61616 | -122.38175 | 22 ft | 0 kts | 117° |
| 2026-04-26 18:43 | 37.61615 | -122.38171 | 22 ft | 4 kts | 117° |
| 2026-04-26 18:43 | 37.61580 | -122.38092 | 21 ft | 13 kts | 130° |
| 2026-04-26 18:43 | 37.61500 | -122.38079 | 22 ft | 13 kts | 206° |
| 2026-04-26 18:43 | 37.61418 | -122.38097 | 23 ft | 12 kts | 151° |
| 2026-04-26 18:44 | 37.61370 | -122.38007 | 22 ft | 12 kts | 118° |
| 2026-04-26 18:44 | 37.61332 | -122.37914 | 23 ft | 12 kts | 118° |
| 2026-04-26 18:44 | 37.61294 | -122.37824 | 22 ft | 12 kts | 118° |
| 2026-04-26 18:44 | 37.61256 | -122.37734 | 21 ft | 12 kts | 118° |
| 2026-04-26 18:45 | 37.61228 | -122.37628 | 21 ft | 13 kts | 95° |
| 2026-04-26 18:45 | 37.61254 | -122.37521 | 22 ft | 14 kts | 55° |
| 2026-04-26 18:45 | 37.61352 | -122.37435 | 21 ft | 20 kts | 25° |
| 2026-04-26 18:45 | 37.61473 | -122.37355 | 22 ft | 19 kts | 29° |
| 2026-04-26 18:46 | 37.61579 | -122.37284 | 21 ft | 10 kts | 29° |
| 2026-04-26 18:46 | 37.61598 | -122.37228 | 21 ft | 7 kts | 108° |
| 2026-04-26 18:46 | 37.61577 | -122.37173 | 21 ft | 7 kts | 118° |
| 2026-04-26 18:46 | 37.61549 | -122.37105 | 23 ft | 11 kts | 117° |
| 2026-04-26 18:47 | 37.61509 | -122.37008 | 21 ft | 14 kts | 117° |
| 2026-04-26 18:47 | 37.61444 | -122.36894 | 21 ft | 18 kts | 131° |
| 2026-04-26 18:47 | 37.61360 | -122.36766 | 23 ft | 20 kts | 120° |
| 2026-04-26 18:47 | 37.61296 | -122.36613 | 22 ft | 19 kts | 118° |
| 2026-04-26 18:48 | 37.61233 | -122.36466 | 23 ft | 19 kts | 118° |
| 2026-04-26 18:48 | 37.61173 | -122.36323 | 22 ft | 18 kts | 118° |
| 2026-04-26 18:48 | 37.61116 | -122.36187 | 21 ft | 17 kts | 118° |
| 2026-04-26 18:48 | 37.61060 | -122.36054 | 21 ft | 17 kts | 118° |
| 2026-04-26 18:49 | 37.61083 | -122.35923 | 22 ft | 16 kts | 43° |
| 2026-04-26 18:49 | 37.61183 | -122.35904 | 21 ft | 16 kts | 329° |
| 2026-04-26 18:49 | 37.61244 | -122.36014 | 22 ft | 19 kts | 298° |
| 2026-04-26 18:49 | 37.61471 | -122.36556 | 21 ft | 118 kts | 297° |
| 2026-04-26 18:50 | 37.61987 | -122.37739 | 281 ft | 179 kts | 300° |
| 2026-04-26 18:50 | 37.62663 | -122.39203 | 1110 ft | 204 kts | 300° |
| 2026-04-26 18:50 | 37.63399 | -122.40805 | 1909 ft | 216 kts | 298° |
| 2026-04-26 18:50 | 37.64132 | -122.42495 | 2656 ft | 231 kts | 296° |
| 2026-04-26 18:51 | 37.64882 | -122.44353 | 3428 ft | 235 kts | 295° |
| 2026-04-26 18:51 | 37.65604 | -122.46203 | 4410 ft | 240 kts | 295° |
| 2026-04-26 18:51 | 37.66353 | -122.48092 | 5435 ft | 242 kts | 294° |
| 2026-04-26 18:51 | 37.66814 | -122.50153 | 6299 ft | 250 kts | 268° |
| 2026-04-26 18:52 | 37.66299 | -122.52214 | 7320 ft | 251 kts | 237° |
| 2026-04-26 18:52 | 37.65029 | -122.53738 | 8299 ft | 259 kts | 212° |
| 2026-04-26 18:52 | 37.63221 | -122.54324 | 8806 ft | 285 kts | 179° |
| 2026-04-26 18:52 | 37.61309 | -122.53688 | 9462 ft | 286 kts | 161° |
| 2026-04-26 18:53 | 37.59437 | -122.52753 | 10103 ft | 293 kts | 160° |
| 2026-04-26 18:53 | 37.57474 | -122.51810 | 10384 ft | 315 kts | 162° |
| 2026-04-26 18:53 | 37.55330 | -122.50797 | 10736 ft | 339 kts | 160° |
| 2026-04-26 18:53 | 37.53111 | -122.49665 | 11491 ft | 348 kts | 159° |
| 2026-04-26 18:54 | 37.50861 | -122.48477 | 12387 ft | 352 kts | 159° |
| 2026-04-26 18:54 | 37.48499 | -122.47665 | 13202 ft | 354 kts | 179° |
| 2026-04-26 18:54 | 37.46046 | -122.47863 | 14085 ft | 354 kts | 191° |
| 2026-04-26 18:54 | 37.43593 | -122.48316 | 14882 ft | 358 kts | 192° |
| 2026-04-26 18:55 | 37.41156 | -122.48810 | 15686 ft | 362 kts | 193° |
| 2026-04-26 18:55 | 37.38650 | -122.49319 | 16487 ft | 366 kts | 193° |
| 2026-04-26 18:55 | 37.36115 | -122.49819 | 17285 ft | 370 kts | 193° |
| 2026-04-26 18:55 | 37.33554 | -122.50313 | 18087 ft | 375 kts | 193° |
| 2026-04-26 18:56 | 37.30957 | -122.50807 | 18801 ft | 379 kts | 193° |
| 2026-04-26 18:56 | 37.28335 | -122.51299 | 19475 ft | 383 kts | 193° |
| 2026-04-26 18:56 | 37.25681 | -122.51793 | 20147 ft | 387 kts | 193° |
| 2026-04-26 18:56 | 37.23003 | -122.52290 | 20836 ft | 391 kts | 193° |
| 2026-04-26 18:57 | 37.20294 | -122.52791 | 21508 ft | 395 kts | 193° |
| 2026-04-26 18:57 | 37.18479 | -122.53126 | 21938 ft | 398 kts | 193° |
| 2026-04-26 18:57 | 37.14817 | -122.53803 | 22798 ft | 403 kts | 193° |
| 2026-04-26 18:57 | 37.12028 | -122.54317 | 23427 ft | 408 kts | 193° |
| 2026-04-26 18:58 | 37.09201 | -122.54839 | 23983 ft | 412 kts | 193° |
| 2026-04-26 18:58 | 37.06353 | -122.55364 | 24537 ft | 414 kts | 193° |
| 2026-04-26 18:58 | 37.03489 | -122.55886 | 25100 ft | 417 kts | 191° |
| 2026-04-26 18:58 | 37.00557 | -122.55789 | 25580 ft | 431 kts | 172° |
| 2026-04-26 18:59 | 36.97710 | -122.54473 | 26098 ft | 442 kts | 154° |
| 2026-04-26 18:59 | 36.95043 | -122.52561 | 26673 ft | 444 kts | 152° |
| 2026-04-26 18:59 | 36.92408 | -122.50581 | 27134 ft | 448 kts | 151° |
| 2026-04-26 18:59 | 36.89697 | -122.48518 | 27588 ft | 452 kts | 151° |
| 2026-04-26 19:00 | 36.86994 | -122.46471 | 28056 ft | 455 kts | 152° |
| 2026-04-26 19:00 | 36.84306 | -122.44456 | 28528 ft | 458 kts | 152° |
| 2026-04-26 19:00 | 36.81554 | -122.42414 | 28982 ft | 461 kts | 152° |
| 2026-04-26 19:00 | 36.78786 | -122.40375 | 29457 ft | 462 kts | 152° |
| 2026-04-26 19:01 | 36.76018 | -122.38345 | 30095 ft | 460 kts | 152° |
| 2026-04-26 19:01 | 36.73263 | -122.36328 | 30706 ft | 457 kts | 152° |
| 2026-04-26 19:01 | 36.70537 | -122.34335 | 31293 ft | 454 kts | 152° |
| 2026-04-26 19:01 | 36.67818 | -122.32350 | 31767 ft | 453 kts | 152° |
| 2026-04-26 19:02 | 36.65095 | -122.30364 | 32218 ft | 453 kts | 152° |
| 2026-04-26 19:02 | 36.62379 | -122.28385 | 32720 ft | 450 kts | 152° |
| 2026-04-26 19:02 | 36.59674 | -122.26414 | 33052 ft | 452 kts | 152° |
| 2026-04-26 19:02 | 36.57869 | -122.25101 | 33009 ft | 455 kts | 152° |
| 2026-04-26 19:03 | 36.51538 | -122.20497 | 33030 ft | 448 kts | 152° |
| 2026-04-26 19:03 | 36.46164 | -122.16595 | 33034 ft | 448 kts | 153° |
| 2026-04-26 19:04 | 36.40768 | -122.12685 | 33049 ft | 449 kts | 153° |
| 2026-04-26 19:04 | 36.35357 | -122.08770 | 33035 ft | 450 kts | 153° |
| 2026-04-26 19:05 | 36.27260 | -122.02922 | 33025 ft | 450 kts | 153° |
| 2026-04-26 19:06 | 36.21859 | -121.99028 | 33026 ft | 448 kts | 153° |
| 2026-04-26 19:06 | 36.16480 | -121.95157 | 33031 ft | 446 kts | 153° |
| 2026-04-26 19:07 | 36.11105 | -121.91295 | 33020 ft | 445 kts | 153° |
| 2026-04-26 19:07 | 36.05783 | -121.87476 | 33038 ft | 444 kts | 153° |
| 2026-04-26 19:08 | 36.01334 | -121.84280 | 33023 ft | 445 kts | 151° |
| 2026-04-26 19:08 | 35.98927 | -121.81858 | 33019 ft | 451 kts | 132° |
| 2026-04-26 19:08 | 35.96975 | -121.78817 | 33049 ft | 452 kts | 129° |
| 2026-04-26 19:09 | 35.93175 | -121.72604 | 33026 ft | 454 kts | 129° |
| 2026-04-26 19:09 | 35.89351 | -121.66399 | 33032 ft | 454 kts | 130° |
| 2026-04-26 19:10 | 35.85482 | -121.60220 | 33031 ft | 455 kts | 130° |
| 2026-04-26 19:10 | 35.81596 | -121.54059 | 33032 ft | 455 kts | 130° |
| 2026-04-26 19:11 | 35.77708 | -121.47909 | 33033 ft | 454 kts | 130° |
| 2026-04-26 19:11 | 35.73822 | -121.41770 | 33032 ft | 454 kts | 130° |
| 2026-04-26 19:12 | 35.69965 | -121.35687 | 33035 ft | 453 kts | 130° |
| 2026-04-26 19:12 | 35.66083 | -121.29574 | 33021 ft | 453 kts | 130° |
| 2026-04-26 19:13 | 35.62203 | -121.23474 | 33039 ft | 452 kts | 130° |
| 2026-04-26 19:13 | 35.58316 | -121.17375 | 33041 ft | 452 kts | 130° |
| 2026-04-26 19:14 | 35.54431 | -121.11286 | 33047 ft | 453 kts | 130° |
| 2026-04-26 19:14 | 35.50550 | -121.05182 | 33029 ft | 453 kts | 129° |
| 2026-04-26 19:15 | 35.46893 | -120.98936 | 33042 ft | 454 kts | 127° |
| 2026-04-26 19:15 | 35.43273 | -120.92581 | 33042 ft | 454 kts | 127° |
| 2026-04-26 19:16 | 35.39639 | -120.86257 | 33043 ft | 453 kts | 128° |
| 2026-04-26 19:16 | 35.35982 | -120.79957 | 33034 ft | 453 kts | 128° |
| 2026-04-26 19:17 | 35.32327 | -120.73689 | 33045 ft | 451 kts | 128° |
| 2026-04-26 19:17 | 35.28671 | -120.67434 | 33044 ft | 452 kts | 128° |
| 2026-04-26 19:18 | 35.25011 | -120.61183 | 33050 ft | 452 kts | 128° |
| 2026-04-26 19:18 | 35.21340 | -120.54923 | 33032 ft | 452 kts | 128° |
| 2026-04-26 19:19 | 35.17667 | -120.48671 | 33044 ft | 453 kts | 128° |
| 2026-04-26 19:19 | 35.13992 | -120.42424 | 33045 ft | 453 kts | 128° |
| 2026-04-26 19:20 | 35.10333 | -120.36217 | 33051 ft | 453 kts | 129° |
| 2026-04-26 19:20 | 35.06635 | -120.29955 | 33031 ft | 454 kts | 129° |
| 2026-04-26 19:21 | 35.02931 | -120.23694 | 33043 ft | 455 kts | 129° |
| 2026-04-26 19:21 | 34.99216 | -120.17426 | 33044 ft | 456 kts | 129° |
| 2026-04-26 19:22 | 34.95490 | -120.11151 | 33036 ft | 456 kts | 129° |
| 2026-04-26 19:22 | 34.91789 | -120.04925 | 32999 ft | 456 kts | 129° |
| 2026-04-26 19:23 | 34.88061 | -119.98668 | 32999 ft | 456 kts | 129° |
| 2026-04-26 19:23 | 34.84329 | -119.92414 | 33007 ft | 456 kts | 129° |
| 2026-04-26 19:24 | 34.80590 | -119.86162 | 33007 ft | 456 kts | 130° |
| 2026-04-26 19:24 | 34.74970 | -119.76784 | 32984 ft | 457 kts | 130° |
| 2026-04-26 19:25 | 34.71851 | -119.71589 | 32986 ft | 458 kts | 130° |
| 2026-04-26 19:25 | 34.67470 | -119.64306 | 32981 ft | 460 kts | 130° |
| 2026-04-26 19:26 | 34.63686 | -119.58027 | 32983 ft | 461 kts | 130° |
| 2026-04-26 19:26 | 34.59893 | -119.51743 | 32987 ft | 461 kts | 131° |
| 2026-04-26 19:27 | 34.56095 | -119.45461 | 32980 ft | 461 kts | 131° |
| 2026-04-26 19:27 | 34.52297 | -119.39192 | 32980 ft | 459 kts | 131° |
| 2026-04-26 19:28 | 34.48515 | -119.32959 | 32960 ft | 458 kts | 131° |
| 2026-04-26 19:28 | 34.44739 | -119.26747 | 33001 ft | 457 kts | 131° |
| 2026-04-26 19:29 | 34.40972 | -119.20564 | 33009 ft | 460 kts | 131° |
| 2026-04-26 19:29 | 34.37162 | -119.14313 | 33024 ft | 462 kts | 131° |
| 2026-04-26 19:30 | 34.33328 | -119.08041 | 33029 ft | 464 kts | 131° |
| 2026-04-26 19:30 | 34.30175 | -119.02894 | 33009 ft | 464 kts | 131° |
| 2026-04-26 19:31 | 34.25636 | -118.95490 | 33023 ft | 464 kts | 133° |
| 2026-04-26 19:31 | 34.21804 | -118.89253 | 33006 ft | 465 kts | 133° |
| 2026-04-26 19:32 | 34.17936 | -118.82968 | 33000 ft | 466 kts | 133° |
| 2026-04-26 19:32 | 34.14066 | -118.76689 | 32998 ft | 466 kts | 133° |
| 2026-04-26 19:33 | 34.10188 | -118.70407 | 32991 ft | 466 kts | 134° |
| 2026-04-26 19:33 | 34.06301 | -118.64125 | 33022 ft | 467 kts | 134° |
| 2026-04-26 19:34 | 34.02411 | -118.57847 | 33021 ft | 468 kts | 134° |
| 2026-04-26 19:34 | 33.98535 | -118.51599 | 33030 ft | 468 kts | 134° |
| 2026-04-26 19:35 | 33.94631 | -118.45319 | 32900 ft | 468 kts | 134° |
| 2026-04-26 19:35 | 33.92656 | -118.42211 | 32438 ft | 463 kts | 137° |
| 2026-04-26 19:35 | 33.90551 | -118.39329 | 32005 ft | 455 kts | 141° |
| 2026-04-26 19:36 | 33.88385 | -118.36591 | 31546 ft | 449 kts | 142° |
| 2026-04-26 19:36 | 33.86947 | -118.34806 | 31252 ft | 447 kts | 141° |
| 2026-04-26 19:36 | 33.84086 | -118.31215 | 30658 ft | 442 kts | 140° |
| 2026-04-26 19:36 | 33.82006 | -118.28562 | 30222 ft | 439 kts | 140° |
| 2026-04-26 19:37 | 33.79926 | -118.25880 | 29706 ft | 436 kts | 139° |
| 2026-04-26 19:37 | 33.77869 | -118.23220 | 29184 ft | 432 kts | 140° |
| 2026-04-26 19:37 | 33.75845 | -118.20581 | 28740 ft | 427 kts | 140° |
| 2026-04-26 19:37 | 33.73854 | -118.17961 | 28247 ft | 423 kts | 139° |
| 2026-04-26 19:38 | 33.71884 | -118.15365 | 27801 ft | 419 kts | 139° |
| 2026-04-26 19:38 | 33.69924 | -118.12784 | 27329 ft | 415 kts | 139° |
| 2026-04-26 19:38 | 33.67980 | -118.10229 | 26887 ft | 412 kts | 139° |
| 2026-04-26 19:38 | 33.66054 | -118.07703 | 26437 ft | 409 kts | 139° |
| 2026-04-26 19:39 | 33.64142 | -118.05197 | 25988 ft | 406 kts | 139° |
| 2026-04-26 19:39 | 33.62240 | -118.02708 | 25523 ft | 403 kts | 139° |
| 2026-04-26 19:39 | 33.60349 | -118.00234 | 25074 ft | 401 kts | 139° |
| 2026-04-26 19:39 | 33.58470 | -117.97777 | 24642 ft | 399 kts | 139° |
| 2026-04-26 19:40 | 33.56598 | -117.95331 | 24197 ft | 397 kts | 139° |
| 2026-04-26 19:40 | 33.54754 | -117.92936 | 23743 ft | 395 kts | 140° |
| 2026-04-26 19:40 | 33.52800 | -117.90594 | 23270 ft | 390 kts | 142° |
| 2026-04-26 19:40 | 33.50842 | -117.88359 | 22781 ft | 387 kts | 143° |
| 2026-04-26 19:41 | 33.48919 | -117.86175 | 22323 ft | 384 kts | 142° |
| 2026-04-26 19:41 | 33.47000 | -117.83973 | 21870 ft | 381 kts | 142° |
| 2026-04-26 19:41 | 33.45090 | -117.81765 | 21419 ft | 379 kts | 142° |
| 2026-04-26 19:41 | 33.44451 | -117.81025 | 21265 ft | 378 kts | 141° |
| 2026-04-26 19:42 | 33.41271 | -117.77500 | 20534 ft | 371 kts | 144° |
| 2026-04-26 19:42 | 33.39343 | -117.75462 | 20096 ft | 369 kts | 144° |
| 2026-04-26 19:42 | 33.37422 | -117.73439 | 19658 ft | 367 kts | 144° |
| 2026-04-26 19:42 | 33.35508 | -117.71416 | 19163 ft | 368 kts | 144° |
| 2026-04-26 19:43 | 33.33595 | -117.69386 | 18745 ft | 366 kts | 144° |
| 2026-04-26 19:43 | 33.31701 | -117.67367 | 18302 ft | 364 kts | 143° |
| 2026-04-26 19:43 | 33.29807 | -117.65348 | 17796 ft | 363 kts | 143° |
| 2026-04-26 19:43 | 33.27924 | -117.63340 | 17327 ft | 361 kts | 143° |
| 2026-04-26 19:44 | 33.26057 | -117.61352 | 16870 ft | 359 kts | 143° |
| 2026-04-26 19:44 | 33.24221 | -117.59401 | 16411 ft | 357 kts | 143° |
| 2026-04-26 19:44 | 33.22365 | -117.57445 | 15961 ft | 355 kts | 143° |
| 2026-04-26 19:44 | 33.20517 | -117.55502 | 15520 ft | 353 kts | 143° |
| 2026-04-26 19:45 | 33.18678 | -117.53569 | 15080 ft | 351 kts | 143° |
| 2026-04-26 19:45 | 33.16846 | -117.51642 | 14639 ft | 350 kts | 142° |
| 2026-04-26 19:45 | 33.15021 | -117.49725 | 14189 ft | 349 kts | 142° |
| 2026-04-26 19:45 | 33.13183 | -117.47842 | 13715 ft | 347 kts | 146° |
| 2026-04-26 19:46 | 33.11227 | -117.46169 | 13239 ft | 344 kts | 149° |
| 2026-04-26 19:46 | 33.09248 | -117.44572 | 12777 ft | 342 kts | 150° |
| 2026-04-26 19:46 | 33.07289 | -117.42978 | 12337 ft | 340 kts | 149° |
| 2026-04-26 19:46 | 33.05351 | -117.41383 | 11910 ft | 336 kts | 149° |
| 2026-04-26 19:47 | 33.03460 | -117.39808 | 11463 ft | 335 kts | 149° |
| 2026-04-26 19:47 | 33.02816 | -117.39269 | 11309 ft | 335 kts | 148° |
| 2026-04-26 19:47 | 32.99661 | -117.36607 | 10556 ft | 332 kts | 148° |
| 2026-04-26 19:47 | 32.97780 | -117.35026 | 10258 ft | 326 kts | 148° |
| 2026-04-26 19:48 | 32.95953 | -117.33494 | 10070 ft | 316 kts | 148° |
| 2026-04-26 19:48 | 32.94181 | -117.32012 | 9839 ft | 308 kts | 149° |
| 2026-04-26 19:48 | 32.92453 | -117.30571 | 9694 ft | 298 kts | 149° |
| 2026-04-26 19:48 | 32.90769 | -117.29167 | 9387 ft | 294 kts | 149° |
| 2026-04-26 19:49 | 32.89103 | -117.27784 | 9076 ft | 291 kts | 149° |
| 2026-04-26 19:49 | 32.87451 | -117.26411 | 8755 ft | 288 kts | 149° |
| 2026-04-26 19:49 | 32.85812 | -117.25050 | 8432 ft | 286 kts | 148° |
| 2026-04-26 19:49 | 32.84180 | -117.23696 | 8114 ft | 284 kts | 148° |
| 2026-04-26 19:50 | 32.82605 | -117.22326 | 7788 ft | 278 kts | 139° |
| 2026-04-26 19:50 | 32.81620 | -117.20389 | 7458 ft | 274 kts | 108° |
| 2026-04-26 19:50 | 32.81079 | -117.18249 | 7166 ft | 267 kts | 107° |
| 2026-04-26 19:50 | 32.80552 | -117.16169 | 6863 ft | 264 kts | 108° |
| 2026-04-26 19:51 | 32.80002 | -117.14086 | 6576 ft | 265 kts | 108° |
| 2026-04-26 19:51 | 32.79434 | -117.12003 | 6314 ft | 264 kts | 109° |
| 2026-04-26 19:51 | 32.78869 | -117.09966 | 6201 ft | 254 kts | 109° |
| 2026-04-26 19:51 | 32.78327 | -117.08041 | 6042 ft | 237 kts | 109° |
| 2026-04-26 19:52 | 32.77833 | -117.06253 | 5963 ft | 217 kts | 108° |
| 2026-04-26 19:52 | 32.77420 | -117.04579 | 5939 ft | 208 kts | 107° |
| 2026-04-26 19:52 | 32.77014 | -117.02887 | 5983 ft | 218 kts | 107° |
| 2026-04-26 19:52 | 32.76599 | -117.01172 | 5983 ft | 212 kts | 107° |
| 2026-04-26 19:53 | 32.76202 | -116.99533 | 5951 ft | 201 kts | 107° |
| 2026-04-26 19:53 | 32.75780 | -116.97968 | 5928 ft | 199 kts | 116° |
| 2026-04-26 19:53 | 32.74958 | -116.96621 | 5645 ft | 197 kts | 140° |
| 2026-04-26 19:53 | 32.73855 | -116.95792 | 5348 ft | 188 kts | 163° |
| 2026-04-26 19:54 | 32.72579 | -116.95424 | 4802 ft | 190 kts | 181° |
| 2026-04-26 19:54 | 32.71295 | -116.95666 | 4198 ft | 187 kts | 206° |
| 2026-04-26 19:54 | 32.70188 | -116.96429 | 3658 ft | 183 kts | 226° |
| 2026-04-26 19:54 | 32.69417 | -116.97625 | 3089 ft | 184 kts | 247° |
| 2026-04-26 19:55 | 32.69148 | -116.98572 | 2912 ft | 172 kts | 260° |
| 2026-04-26 19:55 | 32.69058 | -116.99862 | 2747 ft | 150 kts | 268° |
| 2026-04-26 19:55 | 32.69013 | -117.01067 | 2654 ft | 141 kts | 270° |
| 2026-04-26 19:55 | 32.69162 | -117.02114 | 2638 ft | 123 kts | 287° |
| 2026-04-26 19:56 | 32.69442 | -117.03061 | 2586 ft | 120 kts | 288° |
| 2026-04-26 19:56 | 32.69702 | -117.03998 | 2637 ft | 122 kts | 285° |
| 2026-04-26 19:56 | 32.69967 | -117.04946 | 2727 ft | 120 kts | 287° |
| 2026-04-26 19:56 | 32.70235 | -117.05935 | 2781 ft | 126 kts | 285° |
| 2026-04-26 19:57 | 32.70472 | -117.06908 | 2694 ft | 120 kts | 283° |
| 2026-04-26 19:57 | 32.70705 | -117.07876 | 2489 ft | 123 kts | 284° |
| 2026-04-26 19:57 | 32.70966 | -117.08847 | 2297 ft | 124 kts | 284° |
| 2026-04-26 19:57 | 32.71218 | -117.09821 | 2082 ft | 123 kts | 285° |
| 2026-04-26 19:58 | 32.71458 | -117.10774 | 1874 ft | 120 kts | 283° |
| 2026-04-26 19:58 | 32.71657 | -117.11730 | 1665 ft | 118 kts | 281° |
| 2026-04-26 19:58 | 32.71860 | -117.12684 | 1380 ft | 121 kts | 286° |
| 2026-04-26 19:58 | 32.72084 | -117.13658 | 1115 ft | 122 kts | 285° |
| 2026-04-26 19:59 | 32.72312 | -117.14648 | 848 ft | 126 kts | 288° |
| 2026-04-26 19:59 | 32.72558 | -117.15668 | 597 ft | 128 kts | 287° |
| 2026-04-26 19:59 | 32.72785 | -117.16619 | 379 ft | 112 kts | 289° |
| 2026-04-26 19:59 | 32.72994 | -117.17479 | 145 ft | 109 kts | 287° |
| 2026-04-26 20:00 | 32.73202 | -117.18323 | 44 ft | 104 kts | 287° |
| 2026-04-26 20:00 | 32.73367 | -117.19007 | 22 ft | 60 kts | 287° |
| 2026-04-26 20:00 | 32.73438 | -117.19301 | 21 ft | 29 kts | 286° |
| 2026-04-26 20:00 | 32.73416 | -117.19521 | 25 ft | 23 kts | 252° |
| 2026-04-26 20:01 | 32.73408 | -117.19567 | 22 ft | 0 kts | 265° |
| 2026-04-26 20:01 | 32.73408 | -117.19569 | 22 ft | 1 kts | 265° |
| 2026-04-26 20:01 | 32.73377 | -117.19587 | 22 ft | 9 kts | 194° |
| 2026-04-26 20:01 | 32.73346 | -117.19598 | 20 ft | 1 kts | 197° |
| 2026-04-26 20:02 | 32.73334 | -117.19602 | 20 ft | 1 kts | 197° |
| 2026-04-26 20:02 | 32.73329 | -117.19604 | 19 ft | 1 kts | 198° |
| 2026-04-26 20:02 | 32.73325 | -117.19605 | 19 ft | 0 kts | 198° |